Ideal, South Dakota
Current Conditions -  °F | °C
As of 9:53 PM on Saturday 22 Nov 2014 (Local Time) from KICR Reporting Station
Overcast Overcast  
Wind Chill: 47°   Ceiling: 9000
Heat Index: 49°   Visibility: 10mi
Dew Point: 32°   Wind: 6mph
Humidity: 52%   Direction: 210°SSW
Pressure: 29.44"   Gusts: NA
Location:  43.54°N, 99.9°W
Report Text: KICR 230353Z AUTO 21005KT 10SM FEW065 OVC090 09/00 A2944 RMK AO2 SLP973 T00940000
Loading
Personal Weather Stations






























Interactive Weather Map New forecast layout! Learn more

10-Day Weather Forecast

Advertisements
Track Severe Weather on mobile